Time;durP1;ratioP1;P1;durP2;ratioP2;P2;SDS_P1;SDS_P2;PMS_P1;PMS_P2;Temp;Humidity;BMP_temperature;BMP_pressure;BME280_temperature;BME280_humidity;BME280_pressure;Samples;Min_cycle;Max_cycle;Signal;HPM_P1;HPM_P2
2022/11/02 06:12:30;;;;;;;11.07;1.10;;;;;;;10.79;79.21;101542.09;5134557;27;21369;-86
2022/11/02 06:14:58;;;;;;;10.45;1.33;;;;;;;10.73;79.75;101564.59;5090472;28;20048;-88
2022/11/02 06:17:23;;;;;;;8.48;1.80;;;;;;;10.70;79.49;101571.25;5092432;28;20044;-88
2022/11/02 06:19:49;;;;;;;12.37;1.30;;;;;;;10.69;79.41;101559.59;5092097;28;20055;-88
2022/11/02 06:22:14;;;;;;;11.60;1.10;;;;;;;10.65;80.10;101565.59;5093687;28;20074;-88
2022/11/02 06:24:42;;;;;;;11.70;1.67;;;;;;;10.63;80.45;101575.81;5092345;28;20403;-87
2022/11/02 06:27:15;;;;;;;6.63;0.90;;;;;;;10.61;80.49;101581.44;5092598;28;20040;-87
2022/11/02 06:29:40;;;;;;;10.82;1.27;;;;;;;10.49;80.78;101591.16;5093349;28;20403;-85
2022/11/02 06:32:11;;;;;;;20.10;1.95;;;;;;;10.44;81.25;101589.03;5092686;28;20050;-85
2022/11/02 06:34:36;;;;;;;11.97;1.23;;;;;;;10.42;81.28;101601.94;5075570;28;20113;-86
2022/11/02 06:37:02;;;;;;;9.23;1.42;;;;;;;10.43;81.34;101605.53;5092447;28;20456;-86
2022/11/02 06:39:27;;;;;;;11.97;1.80;;;;;;;10.36;81.85;101600.03;5091757;28;20047;-87
2022/11/02 06:41:57;;;;;;;10.27;1.33;;;;;;;10.31;81.99;101608.72;5092232;28;20044;-86
2022/11/02 06:44:23;;;;;;;9.98;1.35;;;;;;;10.30;82.17;101625.19;5093070;28;20514;-86
2022/11/02 06:46:51;;;;;;;12.70;1.50;;;;;;;10.26;82.27;101638.31;5092311;28;20036;-86
2022/11/02 06:49:16;;;;;;;11.53;1.83;;;;;;;10.23;82.29;101643.25;5075373;28;20396;-86
2022/11/02 06:51:45;;;;;;;16.05;2.63;;;;;;;10.28;82.38;101652.50;5092919;28;20036;-85
2022/11/02 06:54:13;;;;;;;11.02;1.60;;;;;;;10.24;82.50;101674.78;5091779;28;20058;-86
2022/11/02 06:56:38;;;;;;;10.17;1.30;;;;;;;10.24;82.55;101674.78;5075099;28;20039;-85
2022/11/02 06:59:04;;;;;;;8.52;1.27;;;;;;;10.30;82.26;101679.44;5093120;28;20525;-86
2022/11/02 07:01:29;;;;;;;11.80;1.47;;;;;;;10.30;82.22;101698.41;5092940;28;20452;-85
2022/11/02 07:03:57;;;;;;;12.43;1.30;;;;;;;10.31;82.02;101681.94;5074933;28;20044;-85
2022/11/02 07:06:23;;;;;;;9.68;1.38;;;;;;;10.25;82.50;101687.31;5075029;28;20041;-85
2022/11/02 07:08:51;;;;;;;5.73;1.47;;;;;;;10.25;81.84;101684.63;5092169;28;20025;-85
2022/11/02 07:11:16;;;;;;;14.02;1.50;;;;;;;10.28;82.38;101709.47;5092009;28;20044;-86
2022/11/02 07:13:42;;;;;;;10.93;1.20;;;;;;;10.23;82.92;101711.06;5088768;28;20051;-87
2022/11/02 07:16:08;;;;;;;16.17;2.17;;;;;;;10.18;83.08;101714.38;5091583;28;20130;-86
2022/11/02 07:18:33;;;;;;;10.73;1.27;;;;;;;10.34;82.41;101738.56;5092316;28;20119;-86
2022/11/02 07:20:59;;;;;;;14.50;1.38;;;;;;;10.26;82.63;101751.38;5093327;28;20040;-86
2022/11/02 07:23:26;;;;;;;12.67;2.07;;;;;;;10.29;82.99;101742.84;5091629;28;20102;-86
2022/11/02 07:25:52;;;;;;;8.35;1.23;;;;;;;10.32;82.38;101737.91;5074481;28;20079;-86
2022/11/02 07:28:17;;;;;;;7.70;1.20;;;;;;;10.30;82.64;101730.97;5091243;28;20040;-86
2022/11/02 07:30:46;;;;;;;11.80;1.23;;;;;;;10.30;82.82;101736.41;5091789;28;20036;-86
2022/11/02 07:33:11;;;;;;;12.23;1.63;;;;;;;10.35;82.66;101744.84;5091607;28;20032;-85
2022/11/02 07:35:40;;;;;;;11.90;1.67;;;;;;;10.33;82.75;101747.75;5075494;28;20397;-85
2022/11/02 07:38:06;;;;;;;8.93;1.23;;;;;;;10.35;82.99;101750.28;5078746;28;20384;-85
2022/11/02 07:40:37;;;;;;;12.70;1.20;;;;;;;10.33;83.20;101747.75;5096562;28;20039;-85
2022/11/02 07:43:05;;;;;;;14.43;1.58;;;;;;;10.38;82.83;101762.59;5095459;28;20035;-85
2022/11/02 07:45:33;;;;;;;13.90;1.63;;;;;;;10.43;83.26;101762.88;5095183;28;20036;-85
2022/11/02 07:47:58;;;;;;;10.77;1.07;;;;;;;10.42;83.06;101762.00;5095022;28;20040;-85
2022/11/02 07:50:25;;;;;;;14.75;1.95;;;;;;;10.41;83.32;101771.19;5095821;28;20036;-85
2022/11/02 07:52:56;;;;;;;10.82;1.50;;;;;;;10.44;83.61;101780.84;5095980;28;20061;-85
2022/11/02 07:55:24;;;;;;;15.32;1.83;;;;;;;10.48;83.48;101780.25;5096032;28;20036;-85
2022/11/02 07:57:56;;;;;;;14.40;1.83;;;;;;;10.50;83.63;101785.50;5094373;28;20053;-85
2022/11/02 08:00:23;;;;;;;17.13;1.98;;;;;;;10.47;83.39;101777.75;5094949;28;20120;-85
2022/11/02 08:02:48;;;;;;;14.82;1.55;;;;;;;10.55;83.00;101787.63;5094751;28;20040;-85
2022/11/02 08:05:14;;;;;;;13.60;1.53;;;;;;;10.64;82.16;101776.44;5094651;28;20029;-86
2022/11/02 08:07:39;;;;;;;8.37;1.33;;;;;;;10.61;82.86;101771.41;5094463;28;20551;-86
2022/11/02 08:10:06;;;;;;;16.47;1.50;;;;;;;10.60;83.62;101771.59;5094894;28;20266;-85
2022/11/02 08:12:34;;;;;;;15.10;1.63;;;;;;;10.75;82.51;101798.66;5095985;28;20119;-85
2022/11/02 08:14:59;;;;;;;12.67;1.20;;;;;;;10.70;82.53;101780.25;5078336;28;20125;-86
2022/11/02 08:17:32;;;;;;;8.32;1.13;;;;;;;10.71;83.34;101796.34;5095059;28;20427;-85
2022/11/02 08:20:00;;;;;;;14.83;2.13;;;;;;;10.68;83.01;101785.06;5111730;28;20032;-85
2022/11/02 08:22:25;;;;;;;8.30;1.33;;;;;;;10.78;82.20;101790.16;5095902;28;20062;-85
2022/11/02 08:24:51;;;;;;;10.20;1.20;;;;;;;10.84;82.00;101811.09;5094612;28;20469;-85
2022/11/02 08:27:19;;;;;;;11.23;1.40;;;;;;;10.81;82.42;101778.91;5094473;28;20043;-85
2022/11/02 08:29:44;;;;;;;11.63;1.70;;;;;;;10.90;82.27;101802.19;5095329;28;20063;-85
2022/11/02 08:32:11;;;;;;;10.30;1.73;;;;;;;10.86;82.30;101790.84;5095486;28;20064;-85
2022/11/02 08:34:37;;;;;;;11.10;1.60;;;;;;;10.92;82.00;101804.69;5095113;28;20032;-85
2022/11/02 08:37:02;;;;;;;15.32;1.50;;;;;;;11.00;81.29;101799.97;5093853;28;20162;-85
2022/11/02 08:39:28;;;;;;;19.57;1.90;;;;;;;10.96;81.47;101793.25;5094990;28;20178;-86
2022/11/02 08:42:00;;;;;;;14.47;1.73;;;;;;;11.05;81.19;101810.25;5094100;28;20067;-85
2022/11/02 08:44:26;;;;;;;12.77;2.13;;;;;;;11.06;80.30;101806.50;5093823;28;20048;-86
2022/11/02 08:46:51;;;;;;;13.03;1.83;;;;;;;11.18;80.21;101813.09;5111519;28;20047;-85
2022/11/02 08:49:17;;;;;;;15.65;1.50;;;;;;;11.19;80.54;101831.06;5093554;28;20073;-84
2022/11/02 08:51:44;;;;;;;10.37;2.00;;;;;;;11.27;79.87;101819.22;5094050;28;20070;-86
2022/11/02 08:54:10;;;;;;;15.35;2.00;;;;;;;11.16;79.67;101814.31;5094755;28;20124;-86
2022/11/02 08:56:38;;;;;;;14.73;2.83;;;;;;;11.22;79.76;101843.44;5093617;28;20599;-85
2022/11/02 08:59:04;;;;;;;10.57;1.50;;;;;;;11.28;78.36;101820.03;5093641;28;20040;-86
2022/11/02 09:01:29;;;;;;;7.85;1.38;;;;;;;11.29;78.37;101819.84;5077534;28;20055;-86
2022/11/02 09:03:55;;;;;;;17.93;2.27;;;;;;;11.33;78.85;101823.84;5093623;28;20102;-87
2022/11/02 09:06:23;;;;;;;10.85;1.35;;;;;;;11.39;78.74;101831.22;5094002;28;20036;-86
2022/11/02 09:08:48;;;;;;;14.03;1.63;;;;;;;11.40;78.82;101829.38;5093751;28;20040;-86
2022/11/02 09:11:15;;;;;;;14.15;2.20;;;;;;;11.47;78.56;101840.28;5093385;28;20036;-86
2022/11/02 09:13:41;;;;;;;12.10;1.40;;;;;;;11.50;77.94;101826.28;5103065;28;20082;-86
2022/11/02 09:16:07;;;;;;;12.95;1.13;;;;;;;11.57;78.08;101844.34;5096586;28;20040;-85
2022/11/02 09:18:32;;;;;;;19.17;1.92;;;;;;;11.59;77.32;101836.81;5114713;28;20123;-85
2022/11/02 09:21:09;;;;;;;12.03;1.50;;;;;;;11.56;77.61;101820.91;5114668;28;20035;-86
2022/11/02 09:23:37;;;;;;;11.85;1.27;;;;;;;11.71;77.10;101886.03;5064143;28;20126;-86
2022/11/02 09:26:03;;;;;;;17.38;1.90;;;;;;;11.71;76.88;101853.44;5096217;28;20056;-86
2022/11/02 09:28:28;;;;;;;12.33;1.83;;;;;;;11.73;77.65;101836.91;5096239;28;20065;-86
2022/11/02 09:31:03;;;;;;;17.90;2.20;;;;;;;11.75;77.81;101823.94;5096075;28;20031;-87
2022/11/02 09:33:39;;;;;;;;;;;;;;;;;;;;;
2022/11/02 09:36:17;;;;;;;20.15;1.95;;;;;;;12.01;75.70;101855.09;5115422;28;20034;-87
2022/11/02 09:38:48;;;;;;;12.73;1.80;;;;;;;12.20;75.69;101842.66;5081510;28;20044;-86
2022/11/02 09:41:38;;;;;;;14.57;1.73;;;;;;;12.37;75.53;101854.03;5096549;28;20035;-87
2022/11/02 09:44:12;;;;;;;11.60;1.73;;;;;;;12.44;75.42;101868.50;5095610;28;20123;-86
2022/11/02 09:46:42;;;;;;;13.63;2.05;;;;;;;12.36;73.45;101845.03;5096091;28;20050;-86
2022/11/02 09:49:30;;;;;;;14.90;1.73;;;;;;;12.33;74.46;101847.31;5096122;28;20067;-86
2022/11/02 09:51:59;;;;;;;19.38;2.13;;;;;;;12.33;74.52;101879.97;5097120;28;20085;-85
2022/11/02 09:54:28;;;;;;;11.43;1.92;;;;;;;12.27;73.93;101870.75;5096712;28;20413;-86
2022/11/02 09:57:03;;;;;;;13.90;1.87;;;;;;;12.20;73.43;101861.69;5097044;28;20486;-86
2022/11/02 09:59:29;;;;;;;12.07;1.83;;;;;;;12.23;73.74;101859.41;5114952;28;20038;-86
2022/11/02 10:02:06;;;;;;;14.80;1.70;;;;;;;12.29;73.54;101853.16;5114674;28;20384;-86
2022/11/02 10:05:05;;;;;;;13.20;1.60;;;;;;;12.36;72.60;101853.19;5095860;28;20278;-86
2022/11/02 10:07:43;;;;;;;15.60;1.80;;;;;;;12.40;72.43;101865.34;5062603;28;20038;-86
2022/11/02 10:10:27;;;;;;;15.63;1.48;;;;;;;12.53;71.06;101861.00;5114736;28;20039;-85
2022/11/02 10:13:29;;;;;;;17.45;2.13;;;;;;;12.58;71.71;101883.84;5096146;28;20416;-86
2022/11/02 10:15:59;;;;;;;17.65;1.98;;;;;;;12.63;71.53;101891.41;5114224;28;20054;-86
2022/11/02 10:18:30;;;;;;;12.43;1.73;;;;;;;12.65;71.35;101889.31;5095974;28;20498;-85
2022/11/02 10:21:04;;;;;;;13.45;1.77;;;;;;;12.70;69.65;101880.56;5096020;28;20036;-86
2022/11/02 10:24:05;;;;;;;9.82;1.50;;;;;;;12.78;68.50;101886.66;5095727;28;20552;-85
2022/11/02 10:26:36;;;;;;;14.80;1.70;;;;;;;12.76;68.86;101896.06;5081449;28;20051;-86
2022/11/02 10:29:29;;;;;;;15.88;1.70;;;;;;;12.85;69.47;101900.28;5095869;28;20027;-86
2022/11/02 10:31:58;;;;;;;12.50;1.70;;;;;;;12.92;68.26;101890.25;5095524;28;20035;-86
2022/11/02 10:34:27;;;;;;;15.25;1.50;;;;;;;13.06;67.89;101904.72;5079137;28;20123;-86
2022/11/02 10:37:17;;;;;;;11.15;1.55;;;;;;;13.15;68.19;101891.75;5095963;28;20197;-85
2022/11/02 10:40:11;;;;;;;10.52;1.33;;;;;;;13.19;66.51;101903.09;5095681;28;20138;-86
2022/11/02 10:43:07;;;;;;;12.25;1.90;;;;;;;13.20;65.61;101881.09;5075332;28;20036;-86
2022/11/02 10:45:54;;;;;;;8.90;1.20;;;;;;;13.29;64.71;101898.91;5054468;28;20039;-86
2022/11/02 10:48:35;;;;;;;13.90;2.03;;;;;;;13.31;64.36;101896.78;5095404;28;20142;-86
2022/11/02 10:51:11;;;;;;;12.82;1.80;;;;;;;13.41;64.13;101907.34;5095290;28;20038;-86
2022/11/02 10:53:48;;;;;;;17.05;2.15;;;;;;;13.76;63.19;101906.28;5095490;28;20043;-86
2022/11/02 10:56:24;;;;;;;12.15;1.38;;;;;;;15.15;58.47;101909.63;5095610;28;20051;-85
2022/11/02 10:58:59;;;;;;;7.70;1.20;;;;;;;16.91;53.12;101894.84;5113620;28;20042;-86
2022/11/02 11:01:28;;;;;;;11.23;1.83;;;;;;;18.00;49.60;101884.66;5113394;28;20039;-86
2022/11/02 11:04:19;;;;;;;12.60;2.00;;;;;;;19.31;47.73;101896.06;5095825;28;20040;-86
2022/11/02 11:06:47;;;;;;;9.82;1.70;;;;;;;20.53;43.37;101892.63;5096063;28;20036;-86
2022/11/02 11:09:51;;;;;;;8.45;1.30;;;;;;;21.04;41.31;101884.97;5095578;28;20146;-86
2022/11/02 11:12:21;;;;;;;5.23;1.50;;;;;;;21.35;40.13;101888.81;5116917;28;20043;-86
2022/11/02 11:14:58;;;;;;;6.82;1.50;;;;;;;21.70;39.83;101897.69;5099505;28;20047;-86
2022/11/02 11:17:36;;;;;;;12.68;1.75;;;;;;;22.59;38.84;101898.75;5099008;28;20035;-86
2022/11/02 11:20:05;;;;;;;11.65;2.00;;;;;;;23.04;37.12;101912.97;5098817;28;20035;-86
2022/11/02 11:22:38;;;;;;;8.77;1.73;;;;;;;23.48;35.86;101906.13;5098952;28;20047;-86
2022/11/02 11:25:24;;;;;;;8.53;1.90;;;;;;;21.87;36.76;101914.94;5098785;28;20039;-86
2022/11/02 11:27:54;;;;;;;14.98;2.10;;;;;;;22.18;38.00;101901.31;5100084;28;20123;-87
2022/11/02 11:30:27;;;;;;;9.63;2.05;;;;;;;23.47;35.64;101901.69;5099073;28;20537;-86
2022/11/02 11:32:54;;;;;;;12.07;1.92;;;;;;;23.18;35.51;101890.31;5117384;28;20036;-87
2022/11/02 11:35:30;;;;;;;9.70;1.90;;;;;;;23.75;34.84;101891.13;5098433;28;20285;-86
2022/11/02 11:38:03;;;;;;;12.00;2.30;;;;;;;24.86;33.34;101877.19;5098395;28;20031;-86
2022/11/02 11:40:37;;;;;;;10.77;2.10;;;;;;;25.71;31.87;101857.63;5098119;28;20070;-87
2022/11/02 11:43:10;;;;;;;9.05;2.17;;;;;;;25.14;31.53;101851.72;5117226;28;20047;-87
2022/11/02 11:45:37;;;;;;;11.75;2.30;;;;;;;24.46;32.35;101859.63;5098506;28;20036;-87
2022/11/02 11:54:56;;;;;;;11.35;2.63;;;;;;;22.94;34.94;101891.66;5057371;28;20031;-87
2022/11/02 12:00:44;;;;;;;10.27;2.10;;;;;;;20.31;38.86;101882.44;5116436;28;20088;-87
2022/11/02 12:03:13;;;;;;;12.82;2.13;;;;;;;20.20;40.75;101888.94;5116532;28;20482;-87
2022/11/02 12:05:56;;;;;;;11.90;2.43;;;;;;;23.10;37.16;101884.25;5098177;28;20071;-87
2022/11/02 12:11:58;;;;;;;10.25;2.35;;;;;;;23.17;36.32;101888.69;5116328;28;20111;-87
2022/11/02 12:18:25;;;;;;;16.58;3.00;;;;;;;23.65;35.93;101867.88;5116387;28;20115;-87
2022/11/02 14:04:27;;;;;;;9.50;2.10;;;;;;;21.88;37.74;101775.72;5114844;28;20064;-85
2022/11/02 14:07:06;;;;;;;8.83;2.10;;;;;;;20.49;40.41;101769.13;5115635;28;20036;-86
2022/11/02 14:20:43;;;;;;;12.35;2.40;;;;;;;22.55;37.01;101766.81;5114841;28;20488;-86
2022/11/02 15:12:38;;;;;;;8.55;1.98;;;;;;;17.66;45.84;101725.22;5120526;28;20129;-87
2022/11/02 15:15:03;;;;;;;11.45;2.40;;;;;;;17.21;47.11;101717.63;5117638;28;20451;-81
2022/11/02 15:17:29;;;;;;;9.13;1.77;;;;;;;16.78;48.49;101717.69;5099076;28;20066;-81
2022/11/02 15:19:57;;;;;;;6.73;1.47;;;;;;;16.46;49.46;101711.66;5117223;28;20032;-82
2022/11/02 15:22:28;;;;;;;6.80;1.63;;;;;;;16.22;49.70;101711.56;5117568;28;20097;-83
2022/11/02 15:24:57;;;;;;;7.88;1.20;;;;;;;15.81;50.51;101709.59;5118114;28;20023;-86
2022/11/02 15:27:26;;;;;;;8.60;1.65;;;;;;;15.52;50.68;101706.56;5118026;28;20097;-85
2022/11/02 15:33:45;;;;;;;8.27;1.50;;;;;;;15.11;52.01;101700.66;5117756;28;20034;-85
2022/11/02 16:19:41;;;;;;;12.70;1.55;;;;;;;12.52;61.07;101685.97;5102420;28;20093;-84
2022/11/02 16:22:08;;;;;;;9.35;1.13;;;;;;;12.40;63.28;101691.19;5097645;28;20051;-86
2022/11/02 16:24:33;;;;;;;13.07;1.70;;;;;;;12.33;63.62;101689.47;5116368;28;20127;-86
2022/11/02 16:26:59;;;;;;;8.70;1.10;;;;;;;12.28;63.64;101690.09;5116699;28;20035;-85
2022/11/02 16:29:31;;;;;;;10.43;1.50;;;;;;;12.18;63.50;101674.19;5098319;28;20039;-85
2022/11/02 16:31:56;;;;;;;9.32;1.50;;;;;;;12.19;63.48;101683.16;5097754;28;20066;-84
2022/11/02 16:34:35;;;;;;;11.32;1.38;;;;;;;12.21;63.42;101689.25;5098420;28;20070;-85
2022/11/02 16:37:11;;;;;;;9.50;1.57;;;;;;;12.09;64.04;101676.25;5115708;28;20068;-84
2022/11/02 16:39:40;;;;;;;10.38;1.15;;;;;;;12.08;64.50;101690.06;5099365;28;20070;-84
2022/11/02 16:42:12;;;;;;;8.65;1.55;;;;;;;11.97;65.38;101674.31;5082479;28;20063;-85
2022/11/02 16:44:38;;;;;;;9.98;1.73;;;;;;;11.93;65.57;101682.06;5098287;28;20043;-85
2022/11/02 16:47:06;;;;;;;10.67;1.77;;;;;;;11.86;65.63;101676.56;5115897;28;20158;-84
2022/11/02 16:49:34;;;;;;;15.95;1.98;;;;;;;11.80;65.94;101668.41;5116236;28;20115;-84
2022/11/02 16:52:16;;;;;;;16.90;2.03;;;;;;;11.76;65.67;101667.94;5097166;28;20047;-85
2022/11/02 16:54:43;;;;;;;13.77;1.52;;;;;;;11.69;66.05;101664.34;5115633;28;20071;-85
2022/11/02 16:57:14;;;;;;;14.00;1.90;;;;;;;11.70;66.13;101672.31;5097917;28;20036;-85
2022/11/02 17:06:17;;;;;;;7.00;1.20;;;;;;;11.63;66.02;101674.16;5115405;28;20399;-85
2022/11/02 17:08:49;;;;;;;8.95;1.20;;;;;;;11.62;65.96;101669.78;5095627;28;20050;-85
2022/11/02 17:11:16;;;;;;;12.70;1.42;;;;;;;11.62;66.08;101677.06;5097751;28;20047;-85
2022/11/02 17:13:50;;;;;;;12.20;1.63;;;;;;;11.59;66.11;101676.47;5115203;28;20038;-85
2022/11/02 17:16:18;;;;;;;11.88;1.95;;;;;;;11.56;66.26;101676.03;5097200;28;20059;-85
2022/11/02 17:22:26;;;;;;;9.88;1.40;;;;;;;11.44;66.29;101669.47;5105478;28;20055;-85
2022/11/02 17:25:29;;;;;;;9.02;1.33;;;;;;;11.35;65.98;101663.38;5115047;28;20050;-85
2022/11/02 17:27:56;;;;;;;8.90;1.00;;;;;;;11.37;66.93;101673.00;5097222;28;20122;-85
2022/11/02 17:30:34;;;;;;;8.63;1.35;;;;;;;11.38;66.63;101681.97;5115434;28;20042;-85
2022/11/02 17:33:14;;;;;;;10.07;1.35;;;;;;;11.29;66.79;101666.88;5097098;28;20123;-85
2022/11/02 17:35:47;;;;;;;9.15;1.48;;;;;;;11.29;66.92;101667.72;5115731;28;20032;-84
2022/11/02 17:38:13;;;;;;;12.27;1.58;;;;;;;11.22;67.25;101664.16;5096022;28;20039;-85
2022/11/02 17:40:42;;;;;;;13.63;1.77;;;;;;;11.23;67.32;101672.09;5097114;28;20077;-85
2022/11/02 17:43:08;;;;;;;7.05;1.05;;;;;;;11.19;67.27;101669.94;5080225;28;20360;-86
2022/11/02 17:45:38;;;;;;;8.27;1.27;;;;;;;11.18;67.61;101665.56;5078825;28;20042;-85
2022/11/02 17:48:06;;;;;;;8.80;1.52;;;;;;;11.11;67.56;101673.66;5114593;28;20028;-86
2022/11/02 17:50:36;;;;;;;11.10;1.30;;;;;;;11.05;67.77;101675.28;5079886;28;20036;-85
2022/11/02 17:53:08;;;;;;;6.78;1.42;;;;;;;11.02;67.86;101669.44;5080214;28;20040;-86
2022/11/02 17:55:33;;;;;;;10.52;1.15;;;;;;;11.04;68.02;101670.94;5114466;28;20078;-85
2022/11/02 17:58:00;;;;;;;7.00;0.93;;;;;;;11.08;67.97;101663.22;5079212;28;20063;-86
2022/11/02 18:00:26;;;;;;;8.38;1.42;;;;;;;11.02;68.04;101656.69;5114299;28;20063;-85
2022/11/02 18:02:59;;;;;;;10.40;1.23;;;;;;;11.06;68.07;101660.69;5096013;28;20043;-85
2022/11/02 18:05:27;;;;;;;8.00;1.30;;;;;;;11.02;68.54;101653.97;5095695;28;20388;-85
2022/11/02 18:07:57;;;;;;;11.55;1.55;;;;;;;10.96;68.21;101653.94;5096115;28;20032;-85
2022/11/02 18:10:26;;;;;;;17.07;1.93;;;;;;;10.97;68.60;101650.16;5096383;28;20047;-85
2022/11/02 18:12:52;;;;;;;8.25;1.25;;;;;;;10.91;68.62;101635.53;5096031;28;20039;-85
2022/11/02 18:15:25;;;;;;;12.00;1.80;;;;;;;10.96;68.62;101640.38;5095706;28;20479;-84
2022/11/02 18:17:51;;;;;;;10.03;1.40;;;;;;;10.90;69.18;101631.13;5095560;28;20096;-85
2022/11/02 18:20:19;;;;;;;7.57;1.27;;;;;;;10.92;68.96;101645.34;5094742;28;20122;-85
2022/11/02 18:22:45;;;;;;;8.40;1.63;;;;;;;10.87;68.86;101628.81;5113417;28;20491;-85
2022/11/02 18:25:17;;;;;;;8.97;1.43;;;;;;;10.87;69.04;101626.09;5095846;28;20514;-85
2022/11/02 18:27:43;;;;;;;8.68;1.80;;;;;;;10.86;69.05;101633.38;5113759;28;20051;-85
2022/11/02 18:30:16;;;;;;;8.60;1.40;;;;;;;10.83;69.07;101622.94;5096082;28;20180;-85
2022/11/02 18:32:44;;;;;;;6.70;1.25;;;;;;;10.87;69.20;101626.09;5095974;28;20065;-85
2022/11/02 18:35:20;;;;;;;10.65;1.65;;;;;;;10.89;69.00;101626.72;5096061;28;20050;-85
2022/11/02 18:37:47;;;;;;;8.30;1.20;;;;;;;10.86;69.27;101624.41;5114203;28;20035;-86
2022/11/02 18:40:15;;;;;;;11.18;1.48;;;;;;;10.85;69.39;101607.31;5095829;28;20039;-86
2022/11/02 18:42:41;;;;;;;11.20;2.20;;;;;;;10.87;69.00;101612.53;5095308;28;20036;-86
2022/11/02 18:45:08;;;;;;;10.63;1.85;;;;;;;10.82;69.13;101604.97;5113488;28;20062;-85
2022/11/02 18:47:34;;;;;;;6.00;1.48;;;;;;;10.78;69.08;101606.41;5079159;28;20039;-85
2022/11/02 18:50:00;;;;;;;7.10;1.40;;;;;;;10.76;69.25;101594.06;5095851;28;20663;-85
2022/11/02 18:52:28;;;;;;;7.07;1.30;;;;;;;10.76;69.70;101607.63;5113785;28;20035;-85
2022/11/02 18:54:54;;;;;;;10.57;1.33;;;;;;;10.67;69.62;101596.94;5113682;28;20032;-85
2022/11/02 18:57:19;;;;;;;10.20;1.40;;;;;;;10.70;69.49;101603.84;5095471;28;20046;-85
2022/11/02 18:59:44;;;;;;;9.57;1.17;;;;;;;10.64;69.52;101594.59;5094963;28;20054;-85
2022/11/02 19:02:10;;;;;;;11.48;1.40;;;;;;;10.59;69.99;101597.09;5095749;28;20529;-87
2022/11/02 19:04:38;;;;;;;10.43;1.63;;;;;;;10.62;70.70;101599.41;5095500;28;20188;-86
2022/11/02 19:09:50;;;;;;;12.32;1.75;;;;;;;10.56;70.62;101581.19;5113693;28;20034;-85
2022/11/02 19:12:21;;;;;;;11.17;1.50;;;;;;;10.54;70.81;101575.16;5113721;28;20027;-86
2022/11/02 19:14:53;;;;;;;12.35;1.60;;;;;;;10.58;70.80;101564.72;5113406;28;20499;-85
2022/11/02 19:17:23;;;;;;;10.25;1.35;;;;;;;10.62;70.86;101566.00;5113446;28;20040;-86
2022/11/02 19:19:49;;;;;;;10.10;1.30;;;;;;;10.55;71.28;101557.81;5095134;28;20036;-85
2022/11/02 19:22:20;;;;;;;10.82;1.40;;;;;;;10.63;71.05;101554.97;5094892;28;20093;-85
2022/11/02 19:24:46;;;;;;;9.55;1.35;;;;;;;10.59;71.45;101552.84;5113559;28;20032;-85
2022/11/02 19:27:14;;;;;;;12.88;1.63;;;;;;;10.56;71.82;101545.94;5096049;28;20107;-85
2022/11/02 19:29:39;;;;;;;11.82;1.80;;;;;;;10.56;71.90;101547.81;5113478;28;20039;-86
2022/11/02 19:32:08;;;;;;;10.83;1.27;;;;;;;10.59;71.69;101526.53;5095981;28;20036;-86
2022/11/02 19:34:37;;;;;;;11.02;1.83;;;;;;;10.59;71.97;101520.28;5116966;28;20035;-86
2022/11/02 19:37:04;;;;;;;7.63;1.70;;;;;;;10.62;72.04;101525.31;5117212;28;20044;-85
2022/11/02 19:39:29;;;;;;;15.50;1.67;;;;;;;10.66;72.01;101523.88;5098737;28;20032;-86
2022/11/02 19:41:54;;;;;;;18.03;2.20;;;;;;;10.60;72.45;101519.22;5081563;28;20047;-85
2022/11/02 19:44:21;;;;;;;11.80;1.88;;;;;;;10.61;72.71;101502.72;5098455;28;20047;-86
2022/11/02 19:46:49;;;;;;;9.87;1.60;;;;;;;10.60;73.14;101502.94;5098661;28;20134;-86
2022/11/02 19:49:15;;;;;;;11.40;2.00;;;;;;;10.58;73.31;101488.75;5082259;28;20039;-85
2022/11/02 19:51:40;;;;;;;10.70;2.55;;;;;;;10.66;73.23;101483.16;5099121;28;20080;-86
2022/11/02 19:54:06;;;;;;;12.00;2.07;;;;;;;10.68;73.29;101491.94;5081766;28;20506;-85
2022/11/02 19:56:33;;;;;;;9.17;1.40;;;;;;;10.69;73.36;101493.63;5099004;28;20487;-85
2022/11/02 19:59:00;;;;;;;11.85;1.25;;;;;;;10.71;73.75;101486.94;5081805;28;20092;-85
2022/11/02 20:01:28;;;;;;;13.27;1.98;;;;;;;10.75;73.54;101483.81;5098038;28;20032;-85
2022/11/02 20:03:55;;;;;;;17.50;1.67;;;;;;;10.80;73.52;101484.06;5098606;28;20369;-85
2022/11/02 20:06:23;;;;;;;11.82;1.77;;;;;;;10.83;73.81;101494.50;5098533;28;20506;-86
2022/11/02 20:08:52;;;;;;;8.50;2.03;;;;;;;10.76;73.79;101467.31;5116905;28;20040;-85
2022/11/02 20:11:18;;;;;;;9.82;1.63;;;;;;;10.80;73.88;101475.91;5098136;28;20372;-85
2022/11/02 20:13:45;;;;;;;7.93;1.55;;;;;;;10.79;74.09;101466.09;5098287;28;20040;-85
2022/11/02 20:16:13;;;;;;;15.20;2.10;;;;;;;10.80;74.09;101471.31;5116200;28;20483;-86
2022/11/02 20:18:40;;;;;;;8.17;1.33;;;;;;;10.83;73.83;101457.34;5097992;28;20044;-86
2022/11/02 20:21:06;;;;;;;7.47;1.83;;;;;;;10.79;74.08;101466.94;5097967;28;20119;-85
2022/11/02 20:23:36;;;;;;;10.90;1.48;;;;;;;10.83;73.94;101479.06;5098005;28;20058;-86
2022/11/02 20:26:06;;;;;;;11.52;1.50;;;;;;;10.78;74.08;101459.84;5116108;28;20101;-85
2022/11/02 20:28:35;;;;;;;12.85;1.73;;;;;;;10.83;74.30;101478.22;5098307;28;20352;-85
2022/11/02 20:31:10;;;;;;;12.63;1.53;;;;;;;10.81;74.52;101472.16;5097925;28;20039;-85
2022/11/02 20:33:36;;;;;;;12.98;2.60;;;;;;;10.88;73.98;101475.75;5098629;28;20524;-85
2022/11/02 20:36:05;;;;;;;10.13;1.98;;;;;;;10.82;74.68;101466.53;5115758;28;20040;-85
2022/11/02 20:38:34;;;;;;;12.50;2.40;;;;;;;10.83;74.79;101468.19;5115619;28;20122;-86
2022/11/02 20:41:04;;;;;;;11.57;1.60;;;;;;;10.88;74.73;101467.63;5097421;28;20198;-85
2022/11/02 20:43:30;;;;;;;12.40;1.57;;;;;;;10.80;74.84;101463.16;5096532;28;20710;-86
2022/11/02 20:46:09;;;;;;;17.70;2.28;;;;;;;10.80;74.64;101473.19;5097595;28;20098;-85
2022/11/02 20:48:35;;;;;;;12.07;1.88;;;;;;;10.82;74.59;101457.53;5097588;28;20046;-85
2022/11/02 20:51:03;;;;;;;14.02;2.25;;;;;;;10.86;75.17;101472.38;5115559;28;20529;-85
2022/11/02 20:53:29;;;;;;;17.63;2.03;;;;;;;10.86;75.18;101469.69;5097432;28;20043;-85
2022/11/02 20:55:57;;;;;;;14.93;2.13;;;;;;;10.76;75.06;101451.03;5097173;28;20036;-85
2022/11/02 20:58:24;;;;;;;11.23;1.60;;;;;;;10.82;74.91;101444.81;5097241;28;20042;-85
2022/11/02 21:00:52;;;;;;;15.25;2.65;;;;;;;10.80;75.21;101446.06;5097239;28;20059;-85
2022/11/02 21:03:18;;;;;;;10.23;2.08;;;;;;;10.86;75.42;101459.66;5115255;28;20028;-85
2022/11/02 21:05:49;;;;;;;18.30;3.27;;;;;;;10.82;75.35;101446.69;5097309;28;20555;-85
2022/11/02 21:08:16;;;;;;;13.20;1.95;;;;;;;10.82;75.34;101435.81;5097375;28;20032;-85
2022/11/02 21:10:42;;;;;;;13.85;2.13;;;;;;;10.87;75.19;101450.47;5096752;28;20531;-85
2022/11/02 21:15:54;;;;;;;10.80;1.48;;;;;;;10.83;74.94;101440.22;5115809;28;20079;-85
2022/11/02 21:18:21;;;;;;;12.17;2.20;;;;;;;10.80;75.37;101424.34;5079787;28;20044;-85
2022/11/02 21:20:47;;;;;;;12.32;2.10;;;;;;;10.79;75.36;101423.50;5115100;28;20031;-85
2022/11/02 21:23:15;;;;;;;12.57;2.60;;;;;;;10.86;75.43;101428.97;5079831;28;20055;-85
2022/11/02 21:25:43;;;;;;;13.70;2.42;;;;;;;10.74;75.72;101425.16;5114712;28;20235;-85
2022/11/02 21:28:16;;;;;;;15.60;2.03;;;;;;;10.79;75.35;101431.66;5097605;28;20475;-86
2022/11/02 21:30:44;;;;;;;8.02;1.85;;;;;;;10.79;75.39;101434.38;5081582;28;20071;-87
2022/11/02 21:33:10;;;;;;;12.25;1.63;;;;;;;10.85;75.32;101430.00;5096338;28;20044;-87
